Time;durP1;ratioP1;P1;durP2;ratioP2;P2;SDS_P1;SDS_P2;PMS_P1;PMS_P2;Temp;Humidity;BMP_temperature;BMP_pressure;BME280_temperature;BME280_humidity;BME280_pressure;Samples;Min_cycle;Max_cycle;Signal;HPM_P1;HPM_P2
2021/12/10 00:02:21;;;;;;;24.65;10.45;;;;;;;2.70;100.00;99515.13;4968802;28;20047;-81
2021/12/10 00:04:47;;;;;;;21.58;9.52;;;;;;;2.69;100.00;99515.22;4960685;29;20042;-82
2021/12/10 00:07:20;;;;;;;27.80;9.98;;;;;;;2.71;100.00;99522.25;4948601;29;20066;-81
2021/12/10 00:09:48;;;;;;;;;;;;;;;2.72;100.00;99515.91;4981981;28;20099;-82
2021/12/10 00:12:29;;;;;;;42.53;8.98;;;;;;;2.66;100.00;99521.72;4964036;29;19922;-82
2021/12/10 00:14:55;;;;;;;24.73;9.65;;;;;;;2.66;100.00;99519.00;4965339;29;20039;-80
2021/12/10 00:17:22;;;;;;;25.45;9.70;;;;;;;2.60;100.00;99503.22;4965676;28;20070;-81
2021/12/10 00:19:54;;;;;;;18.75;8.68;;;;;;;2.66;100.00;99508.22;4966297;29;20134;-81
2021/12/10 00:22:32;;;;;;;25.08;9.05;;;;;;;2.58;100.00;99495.22;4965815;29;20043;-81
2021/12/10 00:24:57;;;;;;;17.90;8.75;;;;;;;2.61;100.00;99499.56;4979768;28;20032;-81
2021/12/10 00:27:29;;;;;;;32.78;10.68;;;;;;;2.56;100.00;99482.78;4962842;29;20057;-82
2021/12/10 00:30:04;;;;;;;25.10;8.98;;;;;;;2.61;100.00;99472.53;4964689;28;20595;-82
2021/12/10 00:32:34;;;;;;;26.30;8.75;;;;;;;2.57;100.00;99468.28;4960686;28;20502;-81
2021/12/10 00:35:03;;;;;;;17.08;8.35;;;;;;;2.49;100.00;99449.94;4970657;28;20027;-81
2021/12/10 00:37:29;;;;;;;20.73;9.15;;;;;;;2.58;100.00;99454.69;4986292;28;20035;-80
2021/12/10 00:39:58;;;;;;;24.10;9.32;;;;;;;2.50;100.00;99435.44;4983395;28;20050;-81
2021/12/10 00:42:31;;;;;;;24.17;7.95;;;;;;;2.55;100.00;99435.13;4969312;28;20114;-79
2021/12/10 00:44:59;;;;;;;15.70;6.40;;;;;;;2.53;100.00;99427.13;4965152;28;20399;-81
2021/12/10 00:47:28;;;;;;;16.67;7.25;;;;;;;2.64;100.00;99442.59;4976957;28;20042;-82
2021/12/10 00:49:53;;;;;;;18.95;7.45;;;;;;;2.56;100.00;99434.16;4959202;28;20074;-81
2021/12/10 00:52:20;;;;;;;13.25;7.10;;;;;;;2.57;100.00;99428.66;4974462;28;20708;-81
2021/12/10 00:54:46;;;;;;;20.48;6.88;;;;;;;2.58;100.00;99418.69;4950198;29;20146;-81
2021/12/10 00:57:14;;;;;;;20.98;6.53;;;;;;;2.54;100.00;99411.75;4944257;29;20056;-81
2021/12/10 00:59:41;;;;;;;16.38;7.20;;;;;;;2.56;100.00;99404.44;4961319;28;20050;-81
2021/12/10 01:02:11;;;;;;;24.90;6.57;;;;;;;2.56;100.00;99409.84;4963286;29;20545;-81
2021/12/10 01:04:39;;;;;;;15.82;6.60;;;;;;;2.51;100.00;99403.88;4958936;28;20120;-82
2021/12/10 01:07:11;;;;;;;12.48;5.20;;;;;;;2.53;100.00;99388.44;4963760;28;20032;-82
2021/12/10 01:09:42;;;;;;;18.52;5.43;;;;;;;2.52;100.00;99382.16;4964616;28;20042;-82
2021/12/10 01:12:37;;;;;;;13.68;5.78;;;;;;;2.48;100.00;99375.25;4970648;28;20046;-82
2021/12/10 01:23:52;;;;;;;15.60;5.25;;;;;;;2.38;100.00;99347.16;4965008;29;20058;-82
2021/12/10 01:26:41;;;;;;;17.80;5.50;;;;;;;2.36;100.00;99340.97;4961237;28;20031;-81
2021/12/10 01:29:10;;;;;;;15.18;5.50;;;;;;;2.38;100.00;99344.47;4946989;28;20024;-82
2021/12/10 01:31:37;;;;;;;16.98;4.75;;;;;;;2.38;100.00;99339.06;4967721;28;20046;-81
2021/12/10 01:34:04;;;;;;;16.63;5.10;;;;;;;2.34;100.00;99332.13;4979775;28;20024;-81
2021/12/10 01:36:30;;;;;;;15.68;4.75;;;;;;;2.37;100.00;99335.47;4961410;28;20062;-81
2021/12/10 01:38:55;;;;;;;12.50;4.80;;;;;;;2.29;100.00;99318.94;4963063;29;20031;-81
2021/12/10 01:41:25;;;;;;;16.55;4.75;;;;;;;2.30;100.00;99307.19;4964212;28;20031;-81
2021/12/10 01:43:52;;;;;;;10.48;4.57;;;;;;;2.33;100.00;99306.13;4962010;28;20066;-81
2021/12/10 01:46:26;;;;;;;10.77;3.78;;;;;;;2.27;100.00;99307.38;4976713;28;20031;-81
2021/12/10 01:48:56;;;;;;;12.38;3.97;;;;;;;2.20;100.00;99301.56;4975031;28;20392;-81
2021/12/10 01:51:26;;;;;;;9.68;4.82;;;;;;;2.24;100.00;99310.31;4946096;29;20118;-81
2021/12/10 01:53:54;;;;;;;10.18;4.07;;;;;;;2.20;100.00;99306.97;4945433;28;20047;-80
2021/12/10 01:56:25;;;;;;;15.30;4.47;;;;;;;2.09;100.00;99279.00;4963276;28;20067;-81
2021/12/10 01:58:51;;;;;;;12.65;3.75;;;;;;;2.12;100.00;99293.13;4944989;29;20516;-80
2021/12/10 02:01:20;;;;;;;16.55;4.40;;;;;;;2.12;100.00;99286.88;4960432;29;20033;-80
2021/12/10 02:03:47;;;;;;;9.73;4.10;;;;;;;2.19;100.00;99277.38;4960877;28;20070;-79
2021/12/10 02:06:13;;;;;;;11.40;3.53;;;;;;;2.13;100.00;99269.69;4943347;29;20042;-79
2021/12/10 02:08:40;;;;;;;12.10;4.00;;;;;;;2.21;100.00;99275.41;4974235;28;20102;-79
2021/12/10 02:11:07;;;;;;;9.75;4.03;;;;;;;2.12;100.00;99255.34;4948135;28;20038;-79
2021/12/10 02:13:33;;;;;;;11.82;3.97;;;;;;;2.15;100.00;99248.88;4957543;28;20080;-79
2021/12/10 02:15:59;;;;;;;9.23;3.55;;;;;;;2.23;100.00;99257.28;4957748;28;20051;-79
2021/12/10 02:18:25;;;;;;;17.73;5.15;;;;;;;2.22;100.00;99246.59;4975007;28;20047;-79
2021/12/10 02:21:03;;;;;;;12.27;4.20;;;;;;;2.24;100.00;99236.53;4975416;28;20099;-79
2021/12/10 02:23:32;;;;;;;13.98;3.97;;;;;;;2.26;100.00;99235.44;4941140;28;20031;-79
2021/12/10 02:25:58;;;;;;;8.80;4.05;;;;;;;2.23;100.00;99224.88;4975527;28;20391;-79
2021/12/10 02:28:24;;;;;;;17.75;4.65;;;;;;;2.16;100.00;99213.63;4957401;28;20023;-79
2021/12/10 02:30:49;;;;;;;13.13;5.03;;;;;;;2.21;100.00;99224.13;4961447;28;20066;-79
2021/12/10 02:33:16;;;;;;;21.95;5.60;;;;;;;2.27;100.00;99234.47;4961265;28;20596;-80
2021/12/10 02:35:43;;;;;;;12.95;5.63;;;;;;;2.28;100.00;99225.41;4960353;28;20035;-79
2021/12/10 02:38:09;;;;;;;16.23;6.15;;;;;;;2.13;100.00;99213.88;4957218;28;20027;-79
2021/12/10 02:40:36;;;;;;;13.68;5.25;;;;;;;2.22;100.00;99206.94;4957216;29;20738;-80
2021/12/10 02:43:06;;;;;;;17.48;6.07;;;;;;;2.17;100.00;99196.47;4973032;28;20035;-80
2021/12/10 02:45:32;;;;;;;16.02;5.25;;;;;;;2.20;100.00;99190.00;4976659;28;20105;-80
2021/12/10 02:47:57;;;;;;;13.93;5.35;;;;;;;2.12;100.00;99185.16;4973810;28;20039;-81
2021/12/10 02:50:27;;;;;;;9.98;4.10;;;;;;;2.06;100.00;99177.47;4949577;29;20125;-81
2021/12/10 02:52:53;;;;;;;13.10;3.92;;;;;;;2.10;100.00;99160.09;4959941;28;20090;-80
2021/12/10 02:55:20;;;;;;;24.60;4.65;;;;;;;2.12;100.00;99158.16;4959028;28;20533;-81
2021/12/10 02:57:50;;;;;;;13.70;3.75;;;;;;;2.07;100.00;99154.06;4943072;29;20114;-80
2021/12/10 03:00:20;;;;;;;10.57;3.83;;;;;;;2.03;100.00;99158.78;4947201;29;20039;-81
2021/12/10 03:02:46;;;;;;;11.18;4.70;;;;;;;1.97;100.00;99145.75;4960852;28;20031;-81
2021/12/10 03:05:12;;;;;;;7.35;3.38;;;;;;;1.98;100.00;99151.06;4949200;28;20026;-80
2021/12/10 03:07:40;;;;;;;8.80;3.08;;;;;;;2.10;100.00;99143.03;4961070;29;20035;-80
2021/12/10 03:10:13;;;;;;;14.35;3.45;;;;;;;2.02;100.00;99147.16;4976074;28;20086;-81
2021/12/10 03:12:38;;;;;;;12.37;3.37;;;;;;;2.02;100.00;99149.00;4982315;28;20071;-81
2021/12/10 03:15:07;;;;;;;11.77;3.17;;;;;;;2.06;100.00;99139.69;4965658;28;20302;-81
2021/12/10 03:17:33;;;;;;;15.35;3.25;;;;;;;1.95;100.00;99129.69;4973313;28;20148;-81
2021/12/10 03:20:01;;;;;;;10.68;2.97;;;;;;;1.95;100.00;99132.38;4972037;28;20031;-80
2021/12/10 03:22:27;;;;;;;11.77;3.25;;;;;;;1.95;100.00;99124.28;4957553;29;21969;-79
2021/12/10 03:24:53;;;;;;;12.23;3.53;;;;;;;1.95;100.00;99131.50;4964571;28;20050;-79
2021/12/10 03:27:21;;;;;;;8.93;3.83;;;;;;;1.93;100.00;99120.81;4953736;29;20027;-80
2021/12/10 03:29:48;;;;;;;7.88;2.80;;;;;;;1.92;100.00;99108.31;4972227;28;20082;-80
2021/12/10 03:32:24;;;;;;;13.52;3.10;;;;;;;1.90;100.00;99112.94;4972844;28;20031;-80
2021/12/10 03:34:51;;;;;;;13.13;2.97;;;;;;;1.90;100.00;99101.28;4959046;29;20483;-80
2021/12/10 03:37:19;;;;;;;8.70;3.47;;;;;;;1.93;100.00;99110.00;4967316;28;20047;-79
2021/12/10 03:39:48;;;;;;;16.17;3.58;;;;;;;2.02;100.00;99098.56;4975101;28;20038;-79
2021/12/10 03:42:15;;;;;;;4.85;2.95;;;;;;;2.02;100.00;99101.25;4959461;28;20098;-79
2021/12/10 03:44:41;;;;;;;10.98;3.40;;;;;;;2.09;100.00;99100.81;4970451;28;20032;-79
2021/12/10 03:47:08;;;;;;;12.18;3.55;;;;;;;2.02;100.00;99100.41;4955645;28;20118;-79
2021/12/10 03:49:35;;;;;;;8.57;3.10;;;;;;;1.98;100.00;99098.88;4959024;29;20038;-80
2021/12/10 03:52:01;;;;;;;9.00;2.78;;;;;;;1.99;100.00;99090.69;4961344;29;20023;-81
2021/12/10 03:54:27;;;;;;;10.35;3.33;;;;;;;1.98;100.00;99083.59;4975603;28;20118;-80
2021/12/10 03:56:53;;;;;;;10.35;3.10;;;;;;;2.00;100.00;99070.84;4958489;28;20428;-80
2021/12/10 03:59:22;;;;;;;15.75;3.80;;;;;;;1.99;100.00;99066.41;4959625;29;20043;-80
2021/12/10 04:01:56;;;;;;;7.30;2.70;;;;;;;1.96;100.00;99068.47;4959731;28;20228;-82
2021/12/10 04:04:27;;;;;;;8.40;3.00;;;;;;;1.93;100.00;99056.03;4961730;29;20524;-80
2021/12/10 04:06:55;;;;;;;11.15;2.88;;;;;;;1.92;100.00;99050.75;4961983;28;20075;-80
2021/12/10 04:09:22;;;;;;;9.73;2.42;;;;;;;1.92;100.00;99050.75;4960625;28;20102;-80
2021/12/10 04:11:48;;;;;;;6.18;2.80;;;;;;;2.01;100.00;99050.94;4974595;28;20066;-80
2021/12/10 04:14:13;;;;;;;14.00;3.00;;;;;;;1.95;100.00;99045.13;4960724;28;20054;-81
2021/12/10 04:16:39;;;;;;;14.27;2.33;;;;;;;1.99;100.00;99038.56;4961675;29;20397;-81
2021/12/10 04:19:09;;;;;;;12.05;2.67;;;;;;;1.96;100.00;99036.94;4953252;28;20046;-80
2021/12/10 04:21:40;;;;;;;10.30;2.65;;;;;;;1.97;100.00;99035.13;4962159;28;20480;-80
2021/12/10 04:24:13;;;;;;;15.82;2.20;;;;;;;1.91;100.00;99025.59;4976711;28;20049;-81
2021/12/10 04:26:39;;;;;;;13.55;2.17;;;;;;;1.90;100.00;99031.13;4958923;29;20106;-81
2021/12/10 04:29:04;;;;;;;11.55;2.22;;;;;;;1.91;100.00;99020.22;4973989;28;20027;-80
2021/12/10 04:31:32;;;;;;;8.35;1.75;;;;;;;1.86;100.00;99016.13;4943088;29;20376;-81
2021/12/10 04:33:58;;;;;;;10.68;2.05;;;;;;;2.02;100.00;99011.34;4961050;28;20046;-80
2021/12/10 04:36:24;;;;;;;8.35;1.92;;;;;;;2.04;100.00;99008.53;4959469;29;20431;-80
2021/12/10 04:38:50;;;;;;;12.65;2.15;;;;;;;2.03;100.00;98994.16;4946412;29;20118;-80
2021/12/10 04:41:15;;;;;;;6.28;1.58;;;;;;;2.02;100.00;98990.59;4941987;29;20038;-80
2021/12/10 04:43:43;;;;;;;5.97;1.77;;;;;;;2.09;100.00;98996.41;4961562;28;20054;-81
2021/12/10 04:46:09;;;;;;;6.85;1.50;;;;;;;2.10;100.00;98991.84;4976834;28;20035;-81
2021/12/10 04:48:52;;;;;;;12.52;1.77;;;;;;;2.24;100.00;98989.00;4964053;28;20035;-81
2021/12/10 04:51:20;;;;;;;6.03;1.70;;;;;;;2.23;100.00;98978.31;4962788;28;20070;-80
2021/12/10 04:53:46;;;;;;;10.93;1.52;;;;;;;2.24;100.00;98963.84;4976204;28;20043;-80
2021/12/10 04:56:12;;;;;;;5.80;1.30;;;;;;;2.28;100.00;98973.41;4964691;28;20055;-80
2021/12/10 04:58:37;;;;;;;8.63;1.63;;;;;;;2.32;100.00;98964.97;4963284;29;20043;-81
2021/12/10 05:01:03;;;;;;;12.07;2.50;;;;;;;2.42;100.00;98958.88;4963779;28;20086;-80
2021/12/10 05:03:30;;;;;;;9.02;1.52;;;;;;;2.38;100.00;98939.38;4966629;28;20065;-80
2021/12/10 05:06:00;;;;;;;9.55;1.67;;;;;;;2.32;100.00;98939.81;4960976;28;20075;-80
2021/12/10 05:08:26;;;;;;;15.63;1.63;;;;;;;2.43;100.00;98937.16;4964262;28;20069;-81
2021/12/10 05:10:51;;;;;;;10.52;1.30;;;;;;;2.52;100.00;98916.69;4963643;28;20039;-81
2021/12/10 05:13:17;;;;;;;8.38;1.90;;;;;;;2.55;100.00;98920.00;4951247;29;20034;-81
2021/12/10 05:15:44;;;;;;;12.07;1.60;;;;;;;2.51;100.00;98909.53;4963481;29;20054;-81
2021/12/10 05:18:13;;;;;;;10.68;1.30;;;;;;;2.60;100.00;98908.00;4960672;28;20027;-84
2021/12/10 05:20:41;;;;;;;11.82;1.58;;;;;;;2.64;100.00;98907.63;4974545;28;20699;-81
2021/12/10 05:23:06;;;;;;;7.82;1.33;;;;;;;2.55;100.00;98900.25;4963031;28;20039;-81
2021/12/10 05:25:32;;;;;;;9.57;1.95;;;;;;;2.67;100.00;98904.69;4964375;28;20035;-81
2021/12/10 05:27:58;;;;;;;5.13;1.38;;;;;;;2.74;100.00;98897.81;4979428;28;20038;-81
2021/12/10 05:30:27;;;;;;;9.98;1.45;;;;;;;2.70;100.00;98893.63;4963669;29;20499;-81
2021/12/10 05:32:53;;;;;;;9.25;1.13;;;;;;;2.60;100.00;98889.94;4963384;29;20054;-80
2021/12/10 05:35:19;;;;;;;15.15;1.55;;;;;;;2.62;100.00;98896.06;4963685;29;20110;-82
2021/12/10 05:37:44;;;;;;;7.88;1.00;;;;;;;2.69;100.00;98888.34;4961586;29;20027;-79
2021/12/10 05:40:13;;;;;;;9.20;1.10;;;;;;;2.69;100.00;98886.53;4962479;29;20631;-80
2021/12/10 05:42:40;;;;;;;9.45;1.42;;;;;;;2.69;100.00;98870.31;4961524;29;20565;-80
2021/12/10 05:45:06;;;;;;;7.15;1.23;;;;;;;2.79;100.00;98875.84;4965713;28;20035;-81
2021/12/10 05:47:31;;;;;;;11.25;1.52;;;;;;;2.79;100.00;98866.88;4947766;28;20066;-83
2021/12/10 05:49:57;;;;;;;4.93;1.17;;;;;;;2.76;100.00;98855.31;4963809;28;20080;-81
2021/12/10 05:52:23;;;;;;;8.57;1.25;;;;;;;2.81;100.00;98857.66;4962191;28;20035;-80
2021/12/10 05:54:50;;;;;;;7.05;1.15;;;;;;;2.75;100.00;98869.84;4961585;28;20039;-82
2021/12/10 05:57:16;;;;;;;11.25;1.35;;;;;;;2.81;100.00;98860.38;4962399;29;20085;-81
2021/12/10 05:59:42;;;;;;;13.25;1.15;;;;;;;2.82;100.00;98858.50;4976090;28;20134;-81
2021/12/10 06:02:07;;;;;;;8.43;1.10;;;;;;;2.80;100.00;98849.69;4950757;29;20063;-81
2021/12/10 06:04:34;;;;;;;5.95;1.00;;;;;;;2.89;100.00;98860.63;4950254;29;20027;-81
2021/12/10 06:07:01;;;;;;;9.77;1.25;;;;;;;2.87;100.00;98845.50;4954305;28;20086;-84
2021/12/10 06:09:26;;;;;;;10.68;1.63;;;;;;;2.86;100.00;98838.38;4962263;28;20038;-83
2021/12/10 06:11:52;;;;;;;11.63;1.02;;;;;;;2.92;100.00;98848.72;4955939;28;20391;-83
2021/12/10 06:14:18;;;;;;;10.32;1.55;;;;;;;2.92;100.00;98840.59;4956937;28;20055;-82
2021/12/10 06:16:44;;;;;;;10.90;1.08;;;;;;;2.99;100.00;98849.09;4970858;28;20368;-82
2021/12/10 06:19:10;;;;;;;10.02;1.10;;;;;;;2.86;100.00;98841.94;4966496;29;20051;-82
2021/12/10 06:21:36;;;;;;;8.52;1.35;;;;;;;2.85;100.00;98831.25;4961298;29;20027;-83
2021/12/10 06:24:03;;;;;;;12.02;1.60;;;;;;;2.85;100.00;98840.22;4977810;28;20015;-81
2021/12/10 06:26:29;;;;;;;11.25;1.30;;;;;;;2.86;100.00;98825.72;4957595;28;20028;-81
2021/12/10 06:28:54;;;;;;;5.60;1.30;;;;;;;2.76;100.00;98812.09;4958892;28;20027;-82
2021/12/10 06:31:22;;;;;;;14.80;1.52;;;;;;;2.94;100.00;98825.97;4961653;28;20469;-81
2021/12/10 06:33:49;;;;;;;9.85;0.95;;;;;;;3.03;100.00;98826.22;4960155;28;20042;-82
2021/12/10 06:36:17;;;;;;;6.80;1.17;;;;;;;2.94;100.00;98822.41;4976904;28;20036;-82
2021/12/10 06:38:46;;;;;;;10.10;1.27;;;;;;;2.94;100.00;98825.97;4962600;29;20031;-81
2021/12/10 06:41:13;;;;;;;8.35;1.08;;;;;;;2.90;100.00;98815.53;4964848;29;20031;-81
2021/12/10 06:43:40;;;;;;;13.18;2.17;;;;;;;2.85;100.00;98820.44;4962978;29;20027;-82
2021/12/10 06:46:06;;;;;;;19.30;1.48;;;;;;;2.82;100.00;98808.06;4961833;28;20035;-82
2021/12/10 06:48:32;;;;;;;11.50;1.30;;;;;;;2.86;100.00;98817.63;4963845;29;20102;-81
2021/12/10 06:51:03;;;;;;;13.05;1.55;;;;;;;2.87;100.00;98819.34;4948000;29;20085;-82
2021/12/10 06:53:30;;;;;;;7.35;0.90;;;;;;;2.91;100.00;98818.09;4965013;28;20036;-81
2021/12/10 06:55:57;;;;;;;10.88;1.80;;;;;;;2.93;100.00;98817.97;4964579;29;20046;-81
2021/12/10 06:58:28;;;;;;;7.60;1.67;;;;;;;2.88;100.00;98807.53;4968480;29;20043;-81
2021/12/10 07:00:59;;;;;;;9.90;1.80;;;;;;;2.94;100.00;98820.56;4962158;29;20035;-82
2021/12/10 07:03:28;;;;;;;10.35;1.70;;;;;;;2.99;100.00;98817.50;4961658;28;20289;-82
2021/12/10 07:05:57;;;;;;;4.18;1.65;;;;;;;2.97;100.00;98824.88;4963361;29;20038;-82
2021/12/10 07:08:25;;;;;;;13.55;2.13;;;;;;;3.08;100.00;98816.75;4962714;28;20037;-82
2021/12/10 07:10:51;;;;;;;10.82;2.10;;;;;;;2.99;100.00;98827.47;4961596;28;20027;-83
2021/12/10 07:13:17;;;;;;;15.10;2.22;;;;;;;3.03;100.00;98821.66;4961339;29;20090;-83
2021/12/10 07:15:45;;;;;;;11.27;1.60;;;;;;;3.07;100.00;98816.88;4970665;28;20035;-83
2021/12/10 07:18:11;;;;;;;14.80;2.53;;;;;;;3.04;100.00;98823.38;4961847;28;20094;-83
2021/12/10 07:20:40;;;;;;;16.90;2.28;;;;;;;3.00;100.00;98823.75;4962936;29;20038;-84
2021/12/10 07:23:05;;;;;;;10.05;1.92;;;;;;;3.10;100.00;98833.72;4963048;29;20027;-82
2021/12/10 07:25:31;;;;;;;11.10;2.15;;;;;;;3.10;100.00;98822.03;4962494;29;20027;-82
2021/12/10 07:27:57;;;;;;;8.02;2.20;;;;;;;2.96;100.00;98820.44;4960769;29;20118;-81
2021/12/10 07:30:25;;;;;;;9.40;1.88;;;;;;;3.03;100.00;98826.22;4963609;29;20020;-81
2021/12/10 07:32:51;;;;;;;12.95;1.92;;;;;;;3.04;100.00;98830.63;4964648;28;20063;-83
2021/12/10 07:35:17;;;;;;;15.68;3.50;;;;;;;3.02;100.00;98827.22;4965408;28;20027;-82
2021/12/10 07:37:43;;;;;;;11.10;2.42;;;;;;;3.23;100.00;98824.56;4960289;28;20051;-81
2021/12/10 07:40:13;;;;;;;16.55;3.28;;;;;;;3.06;100.00;98821.41;4975251;28;20023;-82
2021/12/10 07:42:39;;;;;;;12.90;1.92;;;;;;;3.03;100.00;98818.09;4953543;28;20043;-83
2021/12/10 07:45:06;;;;;;;13.48;2.85;;;;;;;3.03;100.00;98816.25;4961024;28;20032;-81
2021/12/10 07:47:35;;;;;;;10.75;2.40;;;;;;;3.01;100.00;98815.50;4943586;29;20042;-82
2021/12/10 07:50:03;;;;;;;7.43;2.55;;;;;;;3.16;100.00;98802.59;4959064;28;20031;-83
2021/12/10 07:52:33;;;;;;;8.10;2.95;;;;;;;3.09;100.00;98813.06;4944101;29;20038;-84
2021/12/10 07:54:59;;;;;;;11.27;2.90;;;;;;;3.10;100.00;98808.53;4960371;28;20082;-83
2021/12/10 07:57:26;;;;;;;7.95;3.17;;;;;;;3.13;100.00;98811.84;4954400;28;20042;-83
2021/12/10 07:59:51;;;;;;;9.38;3.03;;;;;;;3.10;100.00;98800.41;4947248;28;20090;-83
2021/12/10 08:02:19;;;;;;;14.60;3.70;;;;;;;3.06;100.00;98807.03;4958751;29;20125;-82
2021/12/10 08:04:45;;;;;;;17.98;2.97;;;;;;;3.11;100.00;98805.66;4976750;28;20122;-81
2021/12/10 08:07:13;;;;;;;11.75;3.17;;;;;;;3.15;100.00;98810.81;4967425;28;20436;-82
2021/12/10 08:09:39;;;;;;;12.40;3.63;;;;;;;3.09;100.00;98809.50;4952522;29;20135;-82
2021/12/10 08:12:05;;;;;;;12.10;3.03;;;;;;;3.12;100.00;98817.38;4955496;29;20470;-81
2021/12/10 08:14:30;;;;;;;13.85;3.40;;;;;;;3.14;100.00;98818.09;4956874;28;20048;-81
2021/12/10 08:16:56;;;;;;;11.27;3.92;;;;;;;3.11;100.00;98805.66;4981436;28;20043;-82
2021/12/10 08:19:21;;;;;;;19.00;3.70;;;;;;;3.23;100.00;98822.75;4964054;28;20050;-81
2021/12/10 08:21:47;;;;;;;11.98;3.35;;;;;;;3.23;100.00;98820.06;4965785;29;20769;-81
2021/12/10 08:24:12;;;;;;;29.50;4.15;;;;;;;3.21;100.00;98813.88;4965333;28;20035;-81
2021/12/10 08:26:39;;;;;;;12.35;3.28;;;;;;;3.17;100.00;98814.28;4948665;29;20043;-81
2021/12/10 08:29:06;;;;;;;13.38;3.85;;;;;;;3.21;100.00;98822.00;4978064;28;20048;-81
2021/12/10 08:31:32;;;;;;;11.15;3.60;;;;;;;3.16;100.00;98821.53;4944385;29;20095;-81
2021/12/10 08:33:59;;;;;;;17.98;4.35;;;;;;;3.22;100.00;98823.72;4967675;28;20070;-81
2021/12/10 08:36:25;;;;;;;19.58;5.00;;;;;;;3.24;100.00;98823.59;4977139;28;20126;-82
2021/12/10 08:38:51;;;;;;;13.50;4.25;;;;;;;3.27;100.00;98820.66;4963045;28;20095;-80
2021/12/10 08:41:22;;;;;;;11.90;3.40;;;;;;;3.33;100.00;98830.09;4974857;28;20436;-81
2021/12/10 08:43:50;;;;;;;15.02;3.63;;;;;;;3.39;100.00;98829.59;4957915;28;20067;-81
2021/12/10 08:46:17;;;;;;;12.88;4.25;;;;;;;3.26;100.00;98813.50;4987148;28;20063;-81
2021/12/10 08:48:43;;;;;;;15.23;3.70;;;;;;;3.30;100.00;98812.28;4961313;29;20051;-82
2021/12/10 08:51:27;;;;;;;11.77;3.25;;;;;;;3.36;100.00;98822.63;4948424;29;20539;-83
2021/12/10 08:53:53;;;;;;;14.48;3.25;;;;;;;3.33;100.00;98817.44;4967115;28;20050;-81
2021/12/10 08:56:19;;;;;;;12.27;3.30;;;;;;;3.40;100.00;98809.69;4965431;28;20036;-82
2021/12/10 08:58:45;;;;;;;14.45;3.00;;;;;;;3.47;100.00;98827.97;4963619;29;20070;-83
2021/12/10 09:01:18;;;;;;;10.27;2.92;;;;;;;3.37;100.00;98829.72;4965389;28;20062;-82
2021/12/10 09:03:48;;;;;;;10.70;3.17;;;;;;;3.39;100.00;98835.84;4985484;28;20035;-82
2021/12/10 09:06:17;;;;;;;13.10;2.97;;;;;;;3.37;100.00;98827.03;4965126;29;20035;-81
2021/12/10 09:08:43;;;;;;;6.80;2.85;;;;;;;3.53;100.00;98825.78;4967362;28;20038;-81
2021/12/10 09:11:13;;;;;;;17.23;2.97;;;;;;;3.53;100.00;98820.38;4962350;28;20043;-81
2021/12/10 09:13:39;;;;;;;9.70;2.58;;;;;;;3.42;100.00;98832.91;4964842;29;20062;-81
2021/12/10 09:16:17;;;;;;;11.85;3.28;;;;;;;3.53;100.00;98839.31;4963096;29;20039;-81
2021/12/10 09:18:43;;;;;;;15.40;4.45;;;;;;;3.39;100.00;98833.16;4982203;28;20027;-80
2021/12/10 09:21:09;;;;;;;7.93;2.58;;;;;;;3.55;100.00;98842.72;4962188;28;20038;-81
2021/12/10 09:23:35;;;;;;;16.05;3.33;;;;;;;3.52;100.00;98846.53;4965656;28;20035;-80
2021/12/10 09:26:06;;;;;;;14.65;3.35;;;;;;;3.53;100.00;98847.41;4947415;28;20445;-81
2021/12/10 09:28:32;;;;;;;10.85;3.28;;;;;;;3.53;100.00;98847.41;4971836;28;20033;-81
2021/12/10 09:30:59;;;;;;;14.10;3.97;;;;;;;3.56;100.00;98844.44;4964127;28;20483;-80
2021/12/10 09:33:26;;;;;;;13.23;3.00;;;;;;;3.58;100.00;98850.59;4944839;29;20047;-80
2021/12/10 09:35:52;;;;;;;8.60;2.67;;;;;;;3.54;100.00;98851.81;4960337;29;20035;-80
2021/12/10 09:38:20;;;;;;;14.23;2.53;;;;;;;3.60;100.00;98848.63;4977457;28;20387;-81
2021/12/10 09:40:49;;;;;;;10.57;2.78;;;;;;;3.60;100.00;98843.19;4963002;28;20078;-82
2021/12/10 09:43:16;;;;;;;15.88;3.28;;;;;;;3.45;100.00;98848.03;4946259;29;20094;-81
2021/12/10 09:45:43;;;;;;;11.82;2.60;;;;;;;3.44;100.00;98847.19;4963659;29;20031;-81
2021/12/10 09:48:12;;;;;;;14.88;3.38;;;;;;;3.45;100.00;98859.72;4945804;29;20482;-81
2021/12/10 09:50:46;;;;;;;13.93;3.25;;;;;;;3.47;100.00;98859.59;4980053;28;20114;-82
2021/12/10 09:53:12;;;;;;;10.63;3.40;;;;;;;3.48;100.00;98850.50;4967835;28;20046;-81
2021/12/10 09:55:39;;;;;;;10.93;2.83;;;;;;;3.36;100.00;98819.91;4944896;29;20043;-81
2021/12/10 09:58:05;;;;;;;8.63;2.65;;;;;;;3.55;100.00;98840.03;4961307;28;20087;-81
2021/12/10 10:00:36;;;;;;;9.98;3.15;;;;;;;3.57;100.00;98838.88;4964406;28;20050;-82
2021/12/10 10:03:03;;;;;;;10.50;2.30;;;;;;;3.63;100.00;98843.81;4953579;28;20024;-81
2021/12/10 10:05:31;;;;;;;16.95;2.85;;;;;;;3.72;100.00;98844.03;4963687;29;20260;-81
2021/12/10 10:08:01;;;;;;;13.25;2.58;;;;;;;3.63;100.00;98837.53;4960744;28;20035;-81
2021/12/10 10:10:29;;;;;;;9.02;2.35;;;;;;;3.66;100.00;98827.31;4977677;28;20042;-82
2021/12/10 10:12:57;;;;;;;15.80;2.35;;;;;;;3.84;100.00;98816.78;4946269;28;20037;-82
2021/12/10 10:15:27;;;;;;;12.85;2.05;;;;;;;3.90;100.00;98831.63;4975330;28;20039;-81
2021/12/10 10:17:56;;;;;;;11.82;1.63;;;;;;;3.94;100.00;98824.16;4992279;28;20049;-80
2021/12/10 10:20:22;;;;;;;10.40;2.30;;;;;;;4.08;100.00;98828.38;4946568;28;20034;-80
2021/12/10 10:22:48;;;;;;;9.85;1.98;;;;;;;3.97;100.00;98819.31;4977901;28;20035;-81
2021/12/10 10:25:16;;;;;;;7.18;1.98;;;;;;;4.01;100.00;98825.34;4963286;29;20042;-80
2021/12/10 10:27:42;;;;;;;10.88;2.35;;;;;;;4.09;100.00;98828.25;4963731;29;20062;-80
2021/12/10 10:30:17;;;;;;;9.35;2.28;;;;;;;4.10;100.00;98835.41;4968237;28;20035;-80
2021/12/10 10:32:46;;;;;;;11.85;2.50;;;;;;;4.10;100.00;98835.41;4943493;29;20044;-80
2021/12/10 10:35:28;;;;;;;9.52;2.17;;;;;;;4.05;100.00;98832.22;4968481;28;20066;-80
2021/12/10 10:37:55;;;;;;;9.30;2.53;;;;;;;4.11;100.00;98834.38;4962794;28;20042;-80
2021/12/10 10:40:25;;;;;;;6.00;2.90;;;;;;;4.04;100.00;98834.06;4960857;29;20064;-79
2021/12/10 10:42:51;;;;;;;13.98;2.60;;;;;;;4.17;100.00;98833.88;4960945;28;20031;-80
2021/12/10 10:45:21;;;;;;;16.15;3.30;;;;;;;4.13;100.00;98828.84;4955439;28;20062;-80
2021/12/10 10:47:48;;;;;;;10.07;2.80;;;;;;;4.10;100.00;98835.41;4962578;28;20042;-80
2021/12/10 10:50:18;;;;;;;9.70;2.63;;;;;;;4.11;100.00;98830.81;4960341;28;20035;-80
2021/12/10 10:52:49;;;;;;;14.98;2.63;;;;;;;4.12;100.00;98833.41;4945138;29;20031;-80
2021/12/10 10:55:27;;;;;;;12.90;2.90;;;;;;;4.14;100.00;98836.84;4961408;29;20051;-80
2021/12/10 10:58:11;;;;;;;10.70;2.30;;;;;;;4.15;100.00;98834.97;4977527;28;20027;-79
2021/12/10 11:00:50;;;;;;;11.98;2.58;;;;;;;4.07;100.00;98830.22;4960849;29;20070;-78
2021/12/10 11:03:22;;;;;;;10.05;2.40;;;;;;;4.15;100.00;98835.84;4961608;28;20043;-79
2021/12/10 11:05:57;;;;;;;7.95;1.88;;;;;;;4.00;100.00;98834.44;4959964;29;20023;-80
2021/12/10 11:08:30;;;;;;;9.57;2.60;;;;;;;4.05;100.00;98833.06;4945204;29;20491;-79
2021/12/10 11:11:16;;;;;;;6.82;2.03;;;;;;;4.06;100.00;98828.50;4962334;28;20047;-80
2021/12/10 11:13:50;;;;;;;9.48;2.15;;;;;;;4.04;100.00;98839.47;4961779;28;20435;-80
2021/12/10 11:16:20;;;;;;;;;;;;;;;4.09;100.00;98846.34;4963896;29;20070;-79
2021/12/10 11:18:53;;;;;;;14.52;1.98;;;;;;;4.10;100.00;98842.63;4961975;28;19914;-79
2021/12/10 11:21:58;;;;;;;18.55;2.47;;;;;;;4.07;100.00;98854.59;4966341;28;20039;-82
2021/12/10 11:24:46;;;;;;;14.18;2.63;;;;;;;4.14;100.00;98846.81;4964003;29;20043;-82
2021/12/10 11:27:20;;;;;;;11.32;2.92;;;;;;;4.17;100.00;98852.81;4978266;28;20042;-82
2021/12/10 11:29:51;;;;;;;10.95;2.70;;;;;;;4.15;100.00;98843.97;4961777;29;20034;-82
2021/12/10 11:32:28;;;;;;;12.43;1.92;;;;;;;4.19;100.00;98842.72;4961607;28;20039;-82
2021/12/10 11:35:08;;;;;;;15.43;2.67;;;;;;;4.07;100.00;98840.19;4968168;28;20090;-81
2021/12/10 11:37:51;;;;;;;8.45;2.35;;;;;;;4.16;100.00;98839.41;4969644;28;20083;-81
2021/12/10 11:40:37;;;;;;;11.50;2.63;;;;;;;4.15;100.00;98846.69;4951336;29;20055;-81
2021/12/10 11:43:17;;;;;;;6.45;2.40;;;;;;;4.18;100.00;98859.09;4964425;28;20130;-81
2021/12/10 11:46:43;;;;;;;13.82;3.40;;;;;;;4.03;100.00;98864.84;4942230;29;20128;-81